This is the latest recevied weather packets stored in our database for station/object PY2KO-13. If no packets are shown the sender has not sent any weather packets the latest 10 day(s).
| Time | Temp. | Humidity | Pressure | Rain* | Wind** | Luminosity | Snow |
|---|---|---|---|---|---|---|---|
| 1777911304 | 26.11° C | 54% | 1020.2 hPa | - | - | - | - |
| 1777909504 | 26.11° C | 54% | 1020.7 hPa | - | - | - | - |
| 1777907704 | 24.44° C | 58% | 1021.1 hPa | - | - | - | - |
| 1777905904 | 25° C | 55% | 1021.5 hPa | - | - | - | - |
| 1777904105 | 23.89° C | 59% | 1021.9 hPa | - | - | - | - |
| 1777902305 | 23.33° C | 61% | 1022.4 hPa | - | - | - | - |
| 1777900504 | 23.33° C | 61% | 1022.6 hPa | - | - | - | - |
| 1777898704 | 21.11° C | 70% | 1022.7 hPa | - | - | - | - |
| 1777896905 | 20.56° C | 72% | 1022.9 hPa | - | - | - | - |
| 1777895105 | 19.44° C | 75% | 1022.7 hPa | - | - | - | - |
| 1777893304 | 19.44° C | 76% | 1022.2 hPa | - | - | - | - |
| 1777891504 | 17.78° C | 81% | 1021.9 hPa | - | - | - | - |
| 1777889705 | 17.78° C | 82% | 1021.8 hPa | - | - | - | - |
| 1777887905 | 17.78° C | 80% | 1021.7 hPa | - | - | - | - |
| 1777886105 | 17.78° C | 80% | 1021.1 hPa | - | - | - | - |
| 1777884305 | 17.78° C | 81% | 1020.8 hPa | - | - | - | - |
| 1777882504 | 17.78° C | 81% | 1020.2 hPa | - | - | - | - |
| 1777880705 | 17.78° C | 81% | 1020.4 hPa | - | - | - | - |
| 1777878905 | 17.78° C | 81% | 1020.8 hPa | - | - | - | - |
| 1777877105 | 18.33° C | 78% | 1021.2 hPa | - | - | - | - |
| 1777875304 | 17.78° C | 80% | 1021.3 hPa | - | - | - | - |
| 1777873504 | 17.78° C | 78% | 1021.7 hPa | - | - | - | - |
| 1777871705 | 18.33° C | 77% | 1021.7 hPa | - | - | - | - |
| 1777869905 | 18.33° C | 77% | 1021.8 hPa | - | - | - | - |
| 1777868105 | 17.78° C | 78% | 1022.1 hPa | - | - | - | - |
* Rain since midnight (hover to see other rain measurements)
** Current wind speed in m/s (hover to see current wind gust speed)